Time;durP1;ratioP1;P1;durP2;ratioP2;P2;SDS_P1;SDS_P2;PMS_P1;PMS_P2;Temp;Humidity;BMP_temperature;BMP_pressure;BME280_temperature;BME280_humidity;BME280_pressure;Samples;Min_cycle;Max_cycle;Signal;HPM_P1;HPM_P2
2023/04/16 00:00:31;;;;;;;73.53;31.83;;;8.50;99.90;;;;;;4995763;28;20050;-84
2023/04/16 00:02:57;;;;;;;69.40;30.70;;;8.10;99.90;;;;;;4995647;28;20042;-84
2023/04/16 00:05:22;;;;;;;65.50;31.83;;;8.20;99.90;;;;;;4993572;28;20042;-84
2023/04/16 00:07:50;;;;;;;75.18;31.88;;;8.20;99.90;;;;;;4994475;28;20129;-84
2023/04/16 00:10:16;;;;;;;71.35;31.50;;;8.40;99.90;;;;;;4994999;28;20486;-84
2023/04/16 00:12:42;;;;;;;75.75;32.25;;;8.20;99.90;;;;;;4994668;28;20107;-84
2023/04/16 00:19:13;;;;;;;65.35;30.80;;;8.30;99.90;;;;;;4994644;28;20092;-84
2023/04/16 00:21:38;;;;;;;71.20;30.80;;;7.90;99.90;;;;;;4995531;28;20564;-84
2023/04/16 00:24:32;;;;;;;77.65;31.88;;;9.10;99.90;;;;;;4995556;28;20042;-84
2023/04/16 00:26:57;;;;;;;70.23;29.63;;;7.80;99.90;;;;;;4994386;28;20053;-84
2023/04/16 00:29:29;;;;;;;70.93;30.95;;;9.30;99.90;;;;;;4994049;28;20710;-84
2023/04/16 00:31:55;;;;;;;69.15;32.03;;;7.70;99.90;;;;;;4993006;28;20046;-84
2023/04/16 00:34:21;;;;;;;68.82;31.05;;;7.90;99.90;;;;;;4992846;28;20133;-84
2023/04/16 00:36:55;;;;;;;70.50;30.08;;;8.50;99.90;;;;;;4994410;28;20046;-84
2023/04/16 00:39:21;;;;;;;68.60;31.73;;;8.00;99.90;;;;;;4993189;28;20050;-84
2023/04/16 00:41:53;;;;;;;69.47;31.30;;;9.20;99.90;;;;;;4993579;28;20056;-84
2023/04/16 00:44:18;;;;;;;71.15;30.67;;;8.80;99.90;;;;;;4993431;28;20113;-84
2023/04/16 00:47:01;;;;;;;70.10;30.77;;;8.60;99.90;;;;;;4994546;28;20076;-84
2023/04/16 00:49:42;;;;;;;71.97;31.27;;;8.10;99.90;;;;;;4993723;28;20542;-84
2023/04/16 00:52:10;;;;;;;73.30;32.78;;;8.80;99.90;;;;;;4993382;28;20101;-84
2023/04/16 00:54:39;;;;;;;74.28;31.65;;;8.00;99.90;;;;;;4992692;28;20046;-84
2023/04/16 00:57:05;;;;;;;69.10;32.22;;;8.40;99.90;;;;;;4993253;28;20053;-84
2023/04/16 00:59:31;;;;;;;70.28;32.05;;;8.10;99.90;;;;;;4992883;28;20042;-84
2023/04/16 01:02:09;;;;;;;70.10;30.08;;;8.00;99.90;;;;;;4992622;28;20050;-84
2023/04/16 01:04:35;;;;;;;67.13;30.50;;;7.70;99.90;;;;;;4993370;28;20414;-84
2023/04/16 01:07:00;;;;;;;71.45;29.10;;;8.00;99.90;;;;;;4992680;28;20050;-84
2023/04/16 01:09:26;;;;;;;72.25;30.92;;;8.00;99.90;;;;;;4993760;28;20035;-84
2023/04/16 01:11:52;;;;;;;67.78;29.95;;;7.90;99.90;;;;;;4993341;28;20371;-84
2023/04/16 01:14:17;;;;;;;67.63;31.33;;;7.90;99.90;;;;;;4993459;28;20066;-84
2023/04/16 01:16:43;;;;;;;69.93;32.72;;;7.90;99.90;;;;;;4992947;28;20042;-84
2023/04/16 01:19:08;;;;;;;74.50;31.45;;;8.90;99.90;;;;;;4994560;28;20092;-84
2023/04/16 01:21:34;;;;;;;74.85;32.20;;;7.90;99.90;;;;;;4992261;28;20049;-84
2023/04/16 01:24:03;;;;;;;81.10;32.83;;;7.80;99.90;;;;;;4994355;28;20042;-84
2023/04/16 01:26:29;;;;;;;73.57;33.05;;;8.10;99.90;;;;;;4994336;28;20046;-84
2023/04/16 01:28:55;;;;;;;70.40;31.48;;;7.80;99.90;;;;;;4991898;28;20508;-84
2023/04/16 01:31:21;;;;;;;69.40;31.33;;;7.80;99.90;;;;;;4993399;28;20058;-84
2023/04/16 01:33:46;;;;;;;75.28;32.53;;;7.80;99.90;;;;;;4994467;28;20046;-84
2023/04/16 01:36:12;;;;;;;72.25;29.23;;;8.50;99.90;;;;;;4991783;28;20038;-85
2023/04/16 01:38:37;;;;;;;74.57;31.80;;;7.70;99.90;;;;;;4992803;28;20043;-84
2023/04/16 01:41:03;;;;;;;62.23;29.17;;;7.70;99.90;;;;;;4994015;28;20081;-84
2023/04/16 01:43:29;;;;;;;74.53;31.10;;;7.70;99.90;;;;;;4993264;28;20397;-84
2023/04/16 01:46:17;;;;;;;71.93;30.58;;;9.00;99.90;;;;;;4992971;28;20049;-84
2023/04/16 01:48:43;;;;;;;71.75;31.58;;;7.70;99.90;;;;;;4991751;28;20042;-85
2023/04/16 01:51:09;;;;;;;73.40;31.83;;;7.70;99.90;;;;;;4993890;28;20042;-84
2023/04/16 01:53:35;;;;;;;69.45;31.92;;;7.70;99.90;;;;;;4994008;28;20439;-84
2023/04/16 01:56:00;;;;;;;63.97;28.48;;;7.70;99.90;;;;;;4991921;28;20410;-84
2023/04/16 01:58:31;;;;;;;76.05;31.42;;;7.70;99.90;;;;;;4993776;28;20073;-84
2023/04/16 02:00:57;;;;;;;76.13;31.85;;;7.70;99.90;;;;;;4993557;28;20038;-84
2023/04/16 02:03:23;;;;;;;74.13;31.40;;;7.70;99.90;;;;;;4992755;28;20138;-84
2023/04/16 02:05:49;;;;;;;63.47;28.60;;;7.70;99.90;;;;;;4991769;28;20133;-84
2023/04/16 02:08:15;;;;;;;71.85;31.55;;;7.70;99.90;;;;;;4992031;28;20141;-84
2023/04/16 02:10:41;;;;;;;72.50;31.30;;;8.90;99.90;;;;;;4992809;28;20118;-84
2023/04/16 02:13:19;;;;;;;70.65;31.75;;;7.60;99.90;;;;;;4991842;28;20042;-85
2023/04/16 02:15:51;;;;;;;68.88;31.60;;;7.40;99.90;;;;;;4991740;28;20415;-85
2023/04/16 02:18:20;;;;;;;71.53;32.05;;;7.60;99.90;;;;;;4991375;28;20487;-84
2023/04/16 02:20:59;;;;;;;74.55;32.13;;;7.60;99.90;;;;;;4991904;28;20068;-84
2023/04/16 02:23:24;;;;;;;72.65;32.08;;;8.30;99.90;;;;;;4993679;28;20038;-84
2023/04/16 02:26:00;;;;;;;69.75;30.60;;;7.60;99.90;;;;;;4991413;28;20046;-85
2023/04/16 02:28:25;;;;;;;77.23;30.10;;;7.50;99.90;;;;;;4990582;28;20047;-84
2023/04/16 02:30:51;;;;;;;77.30;32.60;;;7.90;99.90;;;;;;4999820;28;20054;-84
2023/04/16 02:36:24;;;;;;;73.73;31.73;;;7.50;99.90;;;;;;4990191;28;20046;-84
2023/04/16 02:39:02;;;;;;;71.60;32.37;;;9.10;99.90;;;;;;4992085;28;20123;-84
2023/04/16 02:41:40;;;;;;;69.37;31.40;;;;;;;;;;4992574;28;20398;-85
2023/04/16 02:44:06;;;;;;;75.65;32.63;;;7.40;99.90;;;;;;4991492;28;20058;-84
2023/04/16 02:46:44;;;;;;;72.22;31.98;;;7.20;99.90;;;;;;4990732;28;20552;-84
2023/04/16 02:49:22;;;;;;;73.55;31.17;;;7.60;99.90;;;;;;4991336;28;20082;-84
2023/04/16 02:51:47;;;;;;;72.43;32.13;;;8.70;99.90;;;;;;4991689;28;20042;-84
2023/04/16 02:54:22;;;;;;;74.63;31.83;;;7.80;99.90;;;;;;4990888;28;20049;-84
2023/04/16 02:56:48;;;;;;;85.75;33.72;;;7.50;99.90;;;;;;4992904;28;20050;-84
2023/04/16 02:59:29;;;;;;;80.82;33.42;;;7.20;99.90;;;;;;4990653;28;20427;-84
2023/04/16 03:01:54;;;;;;;76.47;33.38;;;7.10;99.90;;;;;;4992738;28;20047;-85
2023/04/16 03:04:20;;;;;;;79.22;34.03;;;7.20;99.90;;;;;;4991639;28;20104;-84
2023/04/16 03:06:46;;;;;;;75.30;32.78;;;7.30;99.90;;;;;;4992324;28;20043;-85
2023/04/16 03:09:12;;;;;;;81.05;33.33;;;7.30;99.90;;;;;;4991687;28;20078;-84
2023/04/16 03:11:37;;;;;;;88.93;35.03;;;7.60;99.90;;;;;;4993260;28;20050;-85
2023/04/16 03:14:03;;;;;;;82.50;33.85;;;7.20;99.90;;;;;;4990012;28;20047;-85
2023/04/16 03:16:29;;;;;;;82.60;34.17;;;7.90;99.90;;;;;;4992904;28;20455;-84
2023/04/16 03:18:54;;;;;;;78.25;31.73;;;7.20;99.90;;;;;;4991314;28;20049;-85
2023/04/16 03:21:20;;;;;;;85.32;33.65;;;7.20;99.90;;;;;;4991071;28;20112;-85
2023/04/16 03:23:46;;;;;;;92.28;34.63;;;7.20;99.90;;;;;;4991715;28;20470;-85
2023/04/16 03:26:14;;;;;;;79.65;33.63;;;7.20;99.90;;;;;;4991023;28;20181;-84
2023/04/16 03:28:40;;;;;;;85.85;33.00;;;7.20;99.90;;;;;;4992035;28;20035;-84
2023/04/16 03:31:08;;;;;;;81.18;32.25;;;7.20;99.90;;;;;;4991296;28;20057;-84
2023/04/16 03:33:34;;;;;;;77.43;31.90;;;8.00;99.90;;;;;;4991576;28;20050;-84
2023/04/16 03:36:02;;;;;;;90.93;32.75;;;7.20;99.90;;;;;;4991927;28;20038;-84
2023/04/16 03:38:28;;;;;;;85.45;33.25;;;7.40;99.90;;;;;;4992624;28;20046;-84
2023/04/16 03:40:53;;;;;;;85.72;31.77;;;8.30;99.90;;;;;;4991772;28;20057;-84
2023/04/16 03:43:19;;;;;;;88.07;34.38;;;7.20;99.90;;;;;;5074237;22;20060;-84
2023/04/16 03:45:54;;;;;;;90.63;35.15;;;6.70;99.90;;;;;;5032108;28;20048;-84
2023/04/16 03:48:20;;;;;;;80.32;30.60;;;7.80;99.90;;;;;;5027256;28;20049;-84
2023/04/16 03:53:32;;;;;;;79.33;31.93;;;7.20;99.90;;;;;;5030119;28;20045;-84
2023/04/16 03:55:58;;;;;;;85.93;32.97;;;6.70;99.90;;;;;;5029451;28;20069;-84
2023/04/16 03:58:24;;;;;;;87.32;33.28;;;8.30;99.90;;;;;;5031417;28;20072;-85
2023/04/16 04:00:52;;;;;;;87.35;33.63;;;7.10;99.90;;;;;;5031542;28;20042;-85
2023/04/16 04:03:36;;;;;;;86.07;32.42;;;6.90;99.90;;;;;;5030252;28;20052;-84
2023/04/16 04:06:09;;;;;;;87.40;33.25;;;7.70;99.90;;;;;;5030782;28;20049;-85
2023/04/16 04:08:53;;;;;;;81.38;31.95;;;7.10;99.90;;;;;;5031146;28;20037;-84
2023/04/16 04:11:19;;;;;;;81.50;31.63;;;6.60;99.90;;;;;;5015785;28;20049;-85
2023/04/16 04:13:59;;;;;;;85.70;32.63;;;7.40;99.90;;;;;;5033344;28;20048;-85
2023/04/16 04:16:25;;;;;;;96.07;33.72;;;7.10;99.90;;;;;;5034037;28;20041;-85
2023/04/16 04:18:50;;;;;;;94.18;33.15;;;7.00;99.90;;;;;;4997860;28;20584;-84
2023/04/16 04:21:22;;;;;;;90.15;34.03;;;7.10;99.90;;;;;;4997409;28;20061;-85
2023/04/16 04:23:48;;;;;;;97.57;33.38;;;8.30;99.90;;;;;;5032135;28;20157;-84
2023/04/16 04:26:32;;;;;;;93.60;33.35;;;7.00;99.90;;;;;;5034772;28;20489;-85
2023/04/16 04:28:57;;;;;;;95.82;35.08;;;8.30;99.90;;;;;;5033402;28;20045;-84
2023/04/16 04:31:23;;;;;;;89.82;33.88;;;8.30;99.90;;;;;;5033452;28;20547;-84
2023/04/16 04:33:49;;;;;;;97.22;34.53;;;6.40;99.90;;;;;;5017933;28;20041;-85
2023/04/16 04:36:14;;;;;;;95.22;33.53;;;7.10;99.90;;;;;;5016476;28;20053;-84
2023/04/16 04:38:40;;;;;;;91.82;34.72;;;7.10;99.90;;;;;;5015912;28;20463;-85
2023/04/16 04:41:12;;;;;;;96.72;34.53;;;8.30;99.90;;;;;;5017286;28;20046;-85
2023/04/16 04:43:37;;;;;;;92.03;33.22;;;7.30;99.90;;;;;;5035290;28;20057;-84
2023/04/16 04:46:03;;;;;;;109.38;36.58;;;7.10;99.90;;;;;;5032270;28;20057;-85
2023/04/16 04:48:59;;;;;;;104.32;35.25;;;7.10;99.90;;;;;;5032891;28;20430;-85
2023/04/16 04:51:25;;;;;;;102.55;35.13;;;7.20;99.90;;;;;;5032943;28;20042;-85
2023/04/16 04:53:51;;;;;;;110.03;37.35;;;8.30;99.90;;;;;;5032362;28;20049;-84
2023/04/16 04:56:20;;;;;;;96.32;34.47;;;8.00;99.90;;;;;;5032836;28;20132;-84
2023/04/16 04:58:46;;;;;;;98.05;35.80;;;7.20;99.90;;;;;;5032063;28;20204;-85
2023/04/16 05:01:11;;;;;;;95.60;34.83;;;7.10;99.90;;;;;;5034140;28;20132;-84
2023/04/16 05:03:52;;;;;;;106.90;36.25;;;8.20;99.90;;;;;;5032369;28;20045;-84
2023/04/16 05:06:18;;;;;;;109.93;36.50;;;6.90;99.90;;;;;;5031915;28;20050;-84
2023/04/16 05:08:43;;;;;;;104.95;35.20;;;7.00;99.90;;;;;;5032593;28;20547;-84
2023/04/16 05:11:09;;;;;;;87.55;33.95;;;8.30;99.90;;;;;;5032500;28;20045;-84
2023/04/16 05:13:52;;;;;;;103.85;34.90;;;7.20;99.90;;;;;;5031698;28;20385;-84
2023/04/16 05:16:18;;;;;;;116.33;35.40;;;7.20;99.90;;;;;;5032329;28;20182;-84
2023/04/16 05:18:44;;;;;;;107.93;35.95;;;6.90;99.90;;;;;;5020230;28;20726;-84
2023/04/16 05:21:20;;;;;;;;;;;;;;;;;;;;;
2023/04/16 05:24:01;;;;;;;102.40;35.00;;;7.20;99.90;;;;;;5015052;28;20053;-84
2023/04/16 05:26:29;;;;;;;96.47;33.47;;;7.30;99.90;;;;;;5016160;28;20393;-84
2023/04/16 05:29:01;;;;;;;98.87;33.97;;;7.80;99.90;;;;;;5014867;28;20053;-85
2023/04/16 05:31:26;;;;;;;89.00;32.58;;;7.40;99.90;;;;;;5016009;28;20087;-84
2023/04/16 05:33:52;;;;;;;88.22;31.80;;;8.30;99.90;;;;;;5014813;28;20072;-84
2023/04/16 05:36:18;;;;;;;82.93;32.70;;;8.80;99.90;;;;;;5015554;28;20096;-84
2023/04/16 05:38:59;;;;;;;90.07;32.83;;;8.20;99.90;;;;;;5016093;28;20049;-84
2023/04/16 05:41:24;;;;;;;86.93;32.22;;;8.30;99.90;;;;;;5032781;28;20136;-85
2023/04/16 05:43:50;;;;;;;97.05;33.47;;;7.70;99.90;;;;;;5015200;28;20151;-85
2023/04/16 05:46:26;;;;;;;87.95;32.67;;;8.50;99.90;;;;;;5033359;28;20115;-85
2023/04/16 05:48:51;;;;;;;76.80;31.58;;;6.70;99.90;;;;;;5014913;28;20485;-85
2023/04/16 05:51:17;;;;;;;76.32;29.58;;;8.40;99.90;;;;;;5033090;28;20049;-85
2023/04/16 05:53:55;;;;;;;80.28;32.38;;;7.30;99.90;;;;;;5015305;28;20045;-84
2023/04/16 05:56:22;;;;;;;80.38;31.92;;;8.40;99.90;;;;;;5014740;28;20481;-85
2023/04/16 05:59:03;;;;;;;84.32;31.80;;;7.10;99.90;;;;;;5030045;28;20045;-85
2023/04/16 06:01:44;;;;;;;73.22;31.63;;;7.50;99.90;;;;;;5032710;28;20131;-86
2023/04/16 06:04:15;;;;;;;68.28;30.88;;;8.90;99.90;;;;;;5014768;28;20057;-86
2023/04/16 06:06:41;;;;;;;77.47;31.95;;;8.20;99.90;;;;;;5032891;28;20042;-84
2023/04/16 06:09:07;;;;;;;70.13;31.83;;;7.80;99.90;;;;;;5013584;28;20048;-83
2023/04/16 06:11:51;;;;;;;67.20;31.67;;;8.20;99.90;;;;;;5033046;28;20378;-84
2023/04/16 06:14:40;;;;;;;59.65;30.48;;;7.30;99.90;;;;;;5025915;28;20397;-84
2023/04/16 06:17:24;;;;;;;62.85;29.65;;;8.50;99.90;;;;;;5015808;28;20583;-84
2023/04/16 06:19:53;;;;;;;;;;;7.30;99.90;;;;;;5033792;28;20038;-85
2023/04/16 06:22:18;;;;;;;64.45;30.83;;;7.70;99.90;;;;;;5010816;28;19921;-84
2023/04/16 06:24:44;;;;;;;65.45;30.20;;;7.60;99.90;;;;;;5031188;28;20147;-84
2023/04/16 06:27:21;;;;;;;64.25;30.13;;;8.00;99.90;;;;;;5032053;28;20413;-84
2023/04/16 06:29:59;;;;;;;66.28;29.42;;;8.30;99.90;;;;;;5033242;28;20092;-95
2023/04/16 06:32:25;;;;;;;59.88;31.20;;;7.10;99.90;;;;;;5031639;28;20508;-82
2023/04/16 06:34:51;;;;;;;59.88;29.17;;;9.20;99.90;;;;;;5014498;28;20045;-82
2023/04/16 06:37:16;;;;;;;55.38;28.27;;;8.00;99.90;;;;;;5031990;28;20053;-83
2023/04/16 06:39:42;;;;;;;59.47;30.33;;;9.20;99.90;;;;;;5014451;28;20037;-83
2023/04/16 06:42:08;;;;;;;51.95;27.13;;;8.10;99.90;;;;;;5013614;28;20511;-86
2023/04/16 06:45:24;;;;;;;57.58;29.20;;;8.20;99.90;;;;;;5012029;28;20057;-84
2023/04/16 06:48:02;;;;;;;51.33;28.05;;;8.30;99.90;;;;;;5014083;28;20042;-84
2023/04/16 06:50:34;;;;;;;55.58;27.10;;;9.40;99.90;;;;;;5022106;28;20477;-83
2023/04/16 06:52:59;;;;;;;50.03;26.60;;;8.20;99.90;;;;;;5014157;28;20124;-84
2023/04/16 06:55:46;;;;;;;51.92;26.08;;;8.10;99.90;;;;;;5030774;28;20186;-84
2023/04/16 06:58:33;;;;;;;47.63;26.20;;;7.90;99.90;;;;;;5074465;22;20413;-84
2023/04/16 07:01:10;;;;;;;47.65;24.75;;;9.70;99.90;;;;;;5024575;28;20041;-83
2023/04/16 07:10:33;;;;;;;45.75;24.92;;;7.80;99.90;;;;;;4912964;29;20196;-85
2023/04/16 07:13:07;;;;;;;44.85;24.33;;;9.60;99.90;;;;;;4896636;29;20146;-84
2023/04/16 07:15:51;;;;;;;44.92;24.88;;;8.00;99.90;;;;;;4913289;29;20060;-84
2023/04/16 07:18:23;;;;;;;44.10;25.35;;;8.10;99.90;;;;;;4897383;29;20135;-84
2023/04/16 07:21:04;;;;;;;44.75;24.58;;;8.30;99.90;;;;;;4912877;29;20067;-84
2023/04/16 07:23:48;;;;;;;43.58;24.48;;;8.30;99.90;;;;;;4918313;28;20046;-83
2023/04/16 07:26:13;;;;;;;50.78;28.55;;;8.30;99.90;;;;;;4992666;28;20498;-84
2023/04/16 07:28:39;;;;;;;46.33;24.60;;;9.40;99.90;;;;;;5009273;28;20038;-84
2023/04/16 07:31:05;;;;;;;48.15;24.50;;;9.30;99.90;;;;;;4993139;28;20107;-85
2023/04/16 07:33:33;;;;;;;42.38;23.92;;;9.30;99.90;;;;;;4991940;28;20049;-84
2023/04/16 07:36:17;;;;;;;44.80;24.88;;;9.80;99.90;;;;;;5009583;28;20180;-84
2023/04/16 07:38:58;;;;;;;44.85;24.00;;;9.80;99.90;;;;;;4993412;28;20100;-84
2023/04/16 07:41:39;;;;;;;44.40;23.60;;;9.70;99.90;;;;;;5019463;28;20517;-84
2023/04/16 07:44:05;;;;;;;44.08;24.02;;;9.00;99.90;;;;;;5033080;28;20041;-85
2023/04/16 07:46:46;;;;;;;43.85;23.42;;;9.50;99.90;;;;;;5030281;28;20120;-84
2023/04/16 07:49:11;;;;;;;45.58;23.80;;;8.60;99.90;;;;;;5006875;28;20064;-83
2023/04/16 07:51:55;;;;;;;40.85;22.55;;;9.70;99.90;;;;;;5017364;28;20037;-83
2023/04/16 07:54:46;;;;;;;45.38;23.63;;;9.70;99.90;;;;;;5034048;28;20111;-84
2023/04/16 07:57:30;;;;;;;42.47;23.38;;;9.10;99.90;;;;;;5033629;28;20115;-83
2023/04/16 08:00:14;;;;;;;41.55;22.98;;;10.30;99.90;;;;;;5033979;28;20493;-83
2023/04/16 08:03:01;;;;;;;42.25;22.80;;;9.10;99.90;;;;;;5033876;28;20069;-83
2023/04/16 08:06:05;;;;;;;39.75;22.60;;;9.40;99.90;;;;;;5035201;28;20095;-83
2023/04/16 08:08:35;;;;;;;34.28;21.45;;;9.10;99.90;;;;;;5036973;22;20068;-85
2023/04/16 08:11:06;;;;;;;36.22;22.35;;;9.60;99.90;;;;;;5017319;28;20512;-85
2023/04/16 08:13:46;;;;;;;35.97;21.48;;;11.10;99.90;;;;;;5032057;28;20045;-84
2023/04/16 08:16:17;;;;;;;36.05;21.60;;;11.10;99.90;;;;;;5034012;28;20049;-83
2023/04/16 08:18:59;;;;;;;33.97;21.73;;;11.20;99.90;;;;;;5017385;28;20046;-84
2023/04/16 08:21:29;;;;;;;35.08;20.45;;;10.40;99.90;;;;;;5016940;28;20045;-84
2023/04/16 08:24:10;;;;;;;36.95;21.63;;;11.20;99.90;;;;;;5016205;28;20056;-85
2023/04/16 08:26:54;;;;;;;39.20;21.33;;;11.00;99.90;;;;;;5016664;28;20087;-84
2023/04/16 08:29:30;;;;;;;;;;;;;;;;;;;;;
2023/04/16 08:32:14;;;;;;;37.00;21.77;;;10.00;99.90;;;;;;4978957;28;20520;-85
2023/04/16 08:37:52;;;;;;;36.10;21.17;;;10.10;99.90;;;;;;5015916;28;20045;-85
2023/04/16 08:40:20;;;;;;;31.95;19.35;;;10.30;99.90;;;;;;5016406;28;20053;-86
2023/04/16 08:42:58;;;;;;;36.95;20.52;;;11.70;99.90;;;;;;5034682;28;20037;-88
2023/04/16 08:45:40;;;;;;;33.10;19.60;;;10.50;99.90;;;;;;5015788;28;20172;-85
2023/04/16 08:48:13;;;;;;;31.63;19.77;;;11.00;99.90;;;;;;5033472;28;20037;-84
2023/04/16 08:50:58;;;;;;;34.33;20.10;;;10.80;99.90;;;;;;5032843;28;20056;-85
2023/04/16 08:53:42;;;;;;;32.25;19.60;;;10.70;99.90;;;;;;5032916;28;20431;-85
2023/04/16 08:56:10;;;;;;;32.40;19.58;;;11.90;99.90;;;;;;5015058;28;20417;-85
2023/04/16 08:58:49;;;;;;;34.25;20.45;;;11.90;99.90;;;;;;5032413;28;20041;-85
2023/04/16 09:01:19;;;;;;;32.53;19.42;;;12.30;99.90;;;;;;5033585;28;20064;-86
2023/04/16 09:03:54;;;;;;;32.50;20.05;;;12.70;99.90;;;;;;5025989;28;20037;-85
2023/04/16 09:06:33;;;;;;;30.88;18.63;;;12.90;99.90;;;;;;5032967;28;20057;-86
2023/04/16 09:09:11;;;;;;;31.08;18.50;;;12.70;99.90;;;;;;4994113;28;20467;-86
2023/04/16 09:11:38;;;;;;;28.63;18.48;;;11.90;99.90;;;;;;4994402;28;20050;-86
2023/04/16 09:14:11;;;;;;;30.00;18.60;;;12.00;99.90;;;;;;4993193;28;20043;-86
2023/04/16 09:16:37;;;;;;;29.60;18.52;;;12.00;99.90;;;;;;4992978;28;20042;-86
2023/04/16 09:23:04;;;;;;;29.10;17.25;;;11.80;99.90;;;;;;4991936;28;20053;-86
2023/04/16 09:25:33;;;;;;;26.67;17.75;;;11.70;99.90;;;;;;4993111;28;20113;-85
2023/04/16 09:28:00;;;;;;;28.70;18.75;;;11.90;99.90;;;;;;4993061;28;20054;-84
2023/04/16 09:30:26;;;;;;;26.08;16.73;;;12.60;99.90;;;;;;4994147;28;20073;-83
2023/04/16 09:33:16;;;;;;;28.38;17.38;;;12.10;99.90;;;;;;4993086;28;20453;-84
2023/04/16 09:35:49;;;;;;;30.45;18.20;;;12.10;99.90;;;;;;4994330;28;20069;-85
2023/04/16 09:38:20;;;;;;;26.80;18.15;;;12.40;99.90;;;;;;4993693;28;20053;-84
2023/04/16 09:40:48;;;;;;;30.17;17.38;;;13.10;99.90;;;;;;4991681;28;20042;-85
2023/04/16 09:43:16;;;;;;;25.60;16.90;;;13.00;99.90;;;;;;4993191;28;20042;-84
2023/04/16 09:45:53;;;;;;;25.02;15.82;;;12.20;99.90;;;;;;4992481;28;20038;-84
2023/04/16 09:48:32;;;;;;;27.80;17.42;;;12.20;99.90;;;;;;4993142;28;20050;-84
2023/04/16 09:50:59;;;;;;;25.92;16.67;;;13.10;99.90;;;;;;4992415;28;20092;-85
2023/04/16 09:53:27;;;;;;;27.00;16.58;;;12.50;99.90;;;;;;4994068;28;20038;-84
2023/04/16 09:56:04;;;;;;;27.55;16.25;;;13.30;99.90;;;;;;4991141;28;20046;-84
2023/04/16 09:58:30;;;;;;;30.00;17.58;;;13.30;99.90;;;;;;4993006;28;20074;-85
2023/04/16 10:01:10;;;;;;;24.98;17.00;;;12.40;99.90;;;;;;4991503;28;20380;-85
2023/04/16 10:03:39;;;;;;;26.10;16.70;;;12.40;99.90;;;;;;4985001;28;20402;-85
2023/04/16 10:06:19;;;;;;;24.40;16.17;;;12.50;99.90;;;;;;4990284;28;20564;-86
2023/04/16 10:08:46;;;;;;;25.98;16.60;;;12.60;99.90;;;;;;5007983;28;20065;-84
2023/04/16 10:11:27;;;;;;;29.05;17.10;;;12.70;99.90;;;;;;5011840;28;20042;-85
2023/04/16 10:14:05;;;;;;;26.42;16.77;;;12.70;99.90;;;;;;5010270;28;20093;-85
2023/04/16 10:16:46;;;;;;;24.00;15.75;;;13.90;99.90;;;;;;4990521;28;20138;-84
2023/04/16 10:19:26;;;;;;;25.95;16.45;;;14.10;99.90;;;;;;5008973;28;20042;-84
2023/04/16 10:21:52;;;;;;;26.75;16.45;;;13.70;99.90;;;;;;5011228;28;20133;-84
2023/04/16 10:24:18;;;;;;;25.55;16.27;;;13.30;99.90;;;;;;5010567;28;20045;-84
2023/04/16 10:26:50;;;;;;;24.65;15.93;;;14.00;99.90;;;;;;5013092;28;20053;-84
2023/04/16 10:29:16;;;;;;;26.02;16.08;;;14.00;99.90;;;;;;5010690;28;20132;-83
2023/04/16 10:31:42;;;;;;;24.58;16.30;;;13.30;99.90;;;;;;5011658;28;20050;-83
2023/04/16 10:34:18;;;;;;;26.23;16.63;;;13.90;99.90;;;;;;5012110;28;20052;-85
2023/04/16 10:36:51;;;;;;;24.25;16.00;;;14.60;99.90;;;;;;5010697;28;20050;-83
2023/04/16 10:39:28;;;;;;;24.90;16.42;;;13.70;99.90;;;;;;5011372;28;20068;-84
2023/04/16 10:42:10;;;;;;;25.08;16.55;;;13.60;99.90;;;;;;5012513;28;20069;-85
2023/04/16 10:44:50;;;;;;;23.70;16.42;;;14.80;99.90;;;;;;5011998;28;20049;-84
2023/04/16 10:47:25;;;;;;;26.83;15.82;;;14.30;99.90;;;;;;5012991;28;20120;-86
2023/04/16 10:50:37;;;;;;;25.42;16.77;;;13.90;99.90;;;;;;4990018;28;20526;-85
2023/04/16 10:53:26;;;;;;;24.77;17.13;;;13.90;99.90;;;;;;4997629;28;20053;-84
2023/04/16 10:56:25;;;;;;;25.08;16.30;;;15.10;99.90;;;;;;5007139;28;20054;-84
2023/04/16 10:58:53;;;;;;;23.20;16.02;;;14.20;99.90;;;;;;5010491;28;20046;-84
2023/04/16 11:01:42;;;;;;;23.42;16.52;;;14.30;99.90;;;;;;5011443;28;20089;-84
2023/04/16 11:04:20;;;;;;;24.15;16.52;;;14.70;99.90;;;;;;5010419;28;20486;-84
2023/04/16 11:07:13;;;;;;;24.63;16.80;;;14.50;99.90;;;;;;5012551;28;20050;-84
2023/04/16 11:10:04;;;;;;;24.15;16.55;;;14.20;99.90;;;;;;5030471;28;20104;-84
2023/04/16 11:12:34;;;;;;;21.55;15.77;;;14.40;99.90;;;;;;5030648;28;20099;-84
2023/04/16 11:15:11;;;;;;;25.83;16.63;;;14.70;99.90;;;;;;5032052;28;20045;-85
2023/04/16 11:17:39;;;;;;;22.95;15.88;;;14.80;99.90;;;;;;5030839;28;20119;-85
2023/04/16 11:20:25;;;;;;;26.77;16.63;;;14.80;99.90;;;;;;5021476;28;20038;-85
2023/04/16 11:22:52;;;;;;;24.23;16.08;;;14.70;99.90;;;;;;5035997;28;20056;-85
2023/04/16 11:25:22;;;;;;;23.38;16.20;;;14.60;99.90;;;;;;5036367;28;20481;-85
2023/04/16 11:27:48;;;;;;;23.40;15.68;;;14.60;99.90;;;;;;5035486;28;20037;-85
2023/04/16 11:30:14;;;;;;;23.40;16.08;;;14.90;99.90;;;;;;5017826;28;20092;-84
2023/04/16 11:32:40;;;;;;;22.15;16.33;;;14.80;99.90;;;;;;5017481;28;20045;-84
2023/04/16 11:35:12;;;;;;;24.70;16.58;;;15.70;99.90;;;;;;5019018;28;20486;-85
2023/04/16 11:37:39;;;;;;;24.77;16.50;;;15.80;99.90;;;;;;5019224;28;20049;-85
2023/04/16 11:40:08;;;;;;;23.67;15.98;;;15.30;99.90;;;;;;5017662;28;20132;-85
2023/04/16 11:42:42;;;;;;;24.05;16.15;;;15.20;99.90;;;;;;5019327;28;20631;-85
2023/04/16 11:45:08;;;;;;;;;;;15.10;99.90;;;;;;5019279;28;20045;-85
2023/04/16 11:47:45;;;;;;;23.77;16.27;;;15.10;99.90;;;;;;5036442;28;19921;-85
2023/04/16 11:50:23;;;;;;;23.08;15.95;;;15.50;99.90;;;;;;5018735;28;20038;-84
2023/04/16 11:52:51;;;;;;;23.33;15.10;;;15.80;99.90;;;;;;5018345;28;20080;-85
2023/04/16 11:55:17;;;;;;;22.38;15.30;;;15.20;99.90;;;;;;5035106;28;20477;-85
2023/04/16 11:57:44;;;;;;;23.33;15.50;;;15.30;99.90;;;;;;5017648;28;20037;-84
2023/04/16 12:00:12;;;;;;;21.90;14.95;;;16.20;99.90;;;;;;5017588;28;20425;-85
2023/04/16 12:02:43;;;;;;;20.70;14.07;;;15.50;99.90;;;;;;5017066;28;20603;-85
2023/04/16 12:05:29;;;;;;;25.17;15.38;;;15.50;99.90;;;;;;5035180;28;20072;-85
2023/04/16 12:07:57;;;;;;;24.25;14.93;;;16.00;99.90;;;;;;5033901;28;20057;-83
2023/04/16 12:10:22;;;;;;;21.17;14.55;;;15.30;99.90;;;;;;5035420;28;20045;-84
2023/04/16 12:12:48;;;;;;;23.95;14.75;;;15.40;99.90;;;;;;5035456;28;20037;-85
2023/04/16 12:15:14;;;;;;;21.90;15.23;;;15.40;99.90;;;;;;5016713;28;20563;-85
2023/04/16 12:17:40;;;;;;;21.25;14.52;;;15.50;99.90;;;;;;5017440;28;20045;-85
2023/04/16 12:20:12;;;;;;;21.98;14.88;;;15.80;99.90;;;;;;5034495;28;20049;-85
2023/04/16 12:22:43;;;;;;;20.45;14.75;;;15.40;99.90;;;;;;5034266;28;20508;-84
2023/04/16 12:25:14;;;;;;;22.02;14.10;;;16.10;99.90;;;;;;5017295;28;20049;-85
2023/04/16 12:27:51;;;;;;;21.45;14.35;;;15.50;99.90;;;;;;5017308;28;20045;-85
2023/04/16 12:30:19;;;;;;;21.83;14.38;;;15.40;99.90;;;;;;5015087;28;20044;-84
2023/04/16 12:32:48;;;;;;;20.63;14.25;;;15.30;99.90;;;;;;5017456;28;20124;-85
2023/04/16 12:35:29;;;;;;;21.35;14.82;;;15.70;99.90;;;;;;5016613;28;20053;-84
2023/04/16 12:37:55;;;;;;;20.77;14.55;;;15.40;99.90;;;;;;5016021;28;20041;-86
2023/04/16 12:40:21;;;;;;;20.67;14.00;;;15.70;99.90;;;;;;5034835;28;20041;-85
2023/04/16 12:42:46;;;;;;;22.23;14.43;;;15.40;99.90;;;;;;5015959;28;20535;-84
2023/04/16 12:45:12;;;;;;;20.73;14.02;;;15.40;99.90;;;;;;5016702;28;20037;-84
2023/04/16 12:47:37;;;;;;;20.60;14.43;;;15.10;99.90;;;;;;5017098;28;20386;-84
2023/04/16 12:50:03;;;;;;;22.50;14.32;;;15.40;99.90;;;;;;5015950;28;20041;-84
2023/04/16 12:52:29;;;;;;;22.75;15.15;;;14.70;99.90;;;;;;5034786;28;20064;-85
2023/04/16 12:54:55;;;;;;;23.83;15.00;;;14.50;99.90;;;;;;5034133;28;20116;-85
2023/04/16 12:57:27;;;;;;;22.48;14.23;;;14.30;99.90;;;;;;5033769;28;20451;-85
2023/04/16 12:59:56;;;;;;;21.75;14.52;;;14.90;99.90;;;;;;5016440;28;20038;-85
2023/04/16 13:02:22;;;;;;;23.50;14.80;;;14.30;99.90;;;;;;5016603;28;20103;-85
2023/04/16 13:04:52;;;;;;;21.23;13.70;;;14.40;99.90;;;;;;5016170;28;20068;-85
2023/04/16 13:07:18;;;;;;;21.85;13.48;;;14.40;99.90;;;;;;5016261;28;20559;-85
2023/04/16 13:09:45;;;;;;;24.77;14.05;;;14.90;99.90;;;;;;5034313;28;20049;-85
2023/04/16 13:12:10;;;;;;;21.90;13.38;;;14.40;99.90;;;;;;5033130;28;20064;-85
2023/04/16 13:14:36;;;;;;;21.65;14.23;;;15.30;99.90;;;;;;5016097;28;20485;-85
2023/04/16 13:17:02;;;;;;;20.30;14.15;;;14.40;99.90;;;;;;5016000;28;20454;-86
2023/04/16 13:19:29;;;;;;;20.38;12.68;;;14.40;99.90;;;;;;5015747;28;20041;-85
2023/04/16 13:21:55;;;;;;;22.90;13.68;;;15.10;99.90;;;;;;5033684;28;20044;-85